sensor_id;sensor_type;location;lat;lon;timestamp;P1;durP1;ratioP1;P2;durP2;ratioP2
3979;SDS011;2004;52.452;13.120;2024-01-30T00:03:28;193.77;;;14.60;;
3979;SDS011;2004;52.452;13.120;2024-01-30T00:11:19;191.57;;;14.43;;
3979;SDS011;2004;52.452;13.120;2024-01-30T00:19:11;195.57;;;14.03;;
3979;SDS011;2004;52.452;13.120;2024-01-30T00:27:01;193.97;;;13.60;;
3979;SDS011;2004;52.452;13.120;2024-01-30T00:34:52;194.30;;;13.40;;
3979;SDS011;2004;52.452;13.120;2024-01-30T00:42:43;190.47;;;12.90;;
3979;SDS011;2004;52.452;13.120;2024-01-30T00:50:34;192.53;;;13.63;;
3979;SDS011;2004;52.452;13.120;2024-01-30T00:58:24;195.90;;;13.47;;
3979;SDS011;2004;52.452;13.120;2024-01-30T01:06:15;190.87;;;13.27;;
3979;SDS011;2004;52.452;13.120;2024-01-30T01:14:05;191.53;;;12.97;;
3979;SDS011;2004;52.452;13.120;2024-01-30T01:21:56;191.50;;;13.20;;
3979;SDS011;2004;52.452;13.120;2024-01-30T01:29:46;194.50;;;14.07;;
3979;SDS011;2004;52.452;13.120;2024-01-30T01:37:37;196.63;;;13.80;;
3979;SDS011;2004;52.452;13.120;2024-01-30T01:45:27;196.43;;;13.60;;
3979;SDS011;2004;52.452;13.120;2024-01-30T01:53:18;194.87;;;14.07;;
3979;SDS011;2004;52.452;13.120;2024-01-30T02:01:08;195.27;;;14.17;;
3979;SDS011;2004;52.452;13.120;2024-01-30T02:08:59;199.87;;;14.17;;
3979;SDS011;2004;52.452;13.120;2024-01-30T02:16:49;195.67;;;14.20;;
3979;SDS011;2004;52.452;13.120;2024-01-30T02:24:40;203.70;;;14.57;;
3979;SDS011;2004;52.452;13.120;2024-01-30T02:32:30;195.47;;;13.90;;
3979;SDS011;2004;52.452;13.120;2024-01-30T02:40:21;191.37;;;13.10;;
3979;SDS011;2004;52.452;13.120;2024-01-30T02:48:11;197.17;;;14.97;;
3979;SDS011;2004;52.452;13.120;2024-01-30T02:56:02;196.57;;;14.87;;
3979;SDS011;2004;52.452;13.120;2024-01-30T03:03:55;195.67;;;14.00;;
3979;SDS011;2004;52.452;13.120;2024-01-30T03:11:46;198.13;;;15.47;;
3979;SDS011;2004;52.452;13.120;2024-01-30T03:19:36;197.27;;;14.60;;
3979;SDS011;2004;52.452;13.120;2024-01-30T03:27:27;193.63;;;14.23;;
3979;SDS011;2004;52.452;13.120;2024-01-30T03:35:18;195.00;;;14.07;;
3979;SDS011;2004;52.452;13.120;2024-01-30T03:43:09;196.77;;;15.40;;
3979;SDS011;2004;52.452;13.120;2024-01-30T03:50:59;196.30;;;13.93;;
3979;SDS011;2004;52.452;13.120;2024-01-30T03:58:50;204.67;;;14.80;;
3979;SDS011;2004;52.452;13.120;2024-01-30T04:06:41;207.07;;;16.67;;
3979;SDS011;2004;52.452;13.120;2024-01-30T04:14:31;195.30;;;14.37;;
3979;SDS011;2004;52.452;13.120;2024-01-30T04:22:21;195.20;;;13.77;;
3979;SDS011;2004;52.452;13.120;2024-01-30T04:30:12;197.87;;;14.77;;
3979;SDS011;2004;52.452;13.120;2024-01-30T04:38:03;194.73;;;14.17;;
3979;SDS011;2004;52.452;13.120;2024-01-30T04:45:53;198.17;;;15.07;;
3979;SDS011;2004;52.452;13.120;2024-01-30T04:53:44;195.43;;;14.27;;
3979;SDS011;2004;52.452;13.120;2024-01-30T05:01:34;203.97;;;14.20;;
3979;SDS011;2004;52.452;13.120;2024-01-30T05:09:25;198.67;;;15.40;;
3979;SDS011;2004;52.452;13.120;2024-01-30T05:17:15;193.90;;;13.50;;
3979;SDS011;2004;52.452;13.120;2024-01-30T05:25:06;197.77;;;14.00;;
3979;SDS011;2004;52.452;13.120;2024-01-30T05:32:57;192.20;;;13.30;;
3979;SDS011;2004;52.452;13.120;2024-01-30T05:40:47;193.60;;;13.83;;
3979;SDS011;2004;52.452;13.120;2024-01-30T05:48:37;195.93;;;14.43;;
3979;SDS011;2004;52.452;13.120;2024-01-30T05:56:28;196.97;;;14.90;;
3979;SDS011;2004;52.452;13.120;2024-01-30T06:04:19;198.87;;;15.87;;
3979;SDS011;2004;52.452;13.120;2024-01-30T06:12:09;198.27;;;14.00;;
3979;SDS011;2004;52.452;13.120;2024-01-30T06:20:02;195.97;;;14.00;;
3979;SDS011;2004;52.452;13.120;2024-01-30T06:27:54;194.00;;;13.60;;
3979;SDS011;2004;52.452;13.120;2024-01-30T06:35:44;193.07;;;13.77;;
3979;SDS011;2004;52.452;13.120;2024-01-30T06:43:35;197.07;;;14.60;;
3979;SDS011;2004;52.452;13.120;2024-01-30T06:51:26;195.40;;;14.27;;
3979;SDS011;2004;52.452;13.120;2024-01-30T06:59:16;199.50;;;13.93;;
3979;SDS011;2004;52.452;13.120;2024-01-30T07:07:07;198.97;;;14.60;;
3979;SDS011;2004;52.452;13.120;2024-01-30T07:15:02;193.57;;;14.13;;
3979;SDS011;2004;52.452;13.120;2024-01-30T07:22:53;196.23;;;15.40;;
3979;SDS011;2004;52.452;13.120;2024-01-30T07:30:44;198.07;;;14.07;;
3979;SDS011;2004;52.452;13.120;2024-01-30T07:38:34;195.87;;;14.33;;
3979;SDS011;2004;52.452;13.120;2024-01-30T07:46:25;196.73;;;15.13;;
3979;SDS011;2004;52.452;13.120;2024-01-30T07:54:15;196.77;;;15.80;;
3979;SDS011;2004;52.452;13.120;2024-01-30T08:02:06;202.50;;;15.43;;
3979;SDS011;2004;52.452;13.120;2024-01-30T08:09:56;196.77;;;15.40;;
3979;SDS011;2004;52.452;13.120;2024-01-30T08:17:47;200.87;;;14.83;;
3979;SDS011;2004;52.452;13.120;2024-01-30T08:25:37;194.53;;;13.93;;
3979;SDS011;2004;52.452;13.120;2024-01-30T08:33:27;202.57;;;15.10;;
3979;SDS011;2004;52.452;13.120;2024-01-30T08:41:18;191.70;;;14.30;;
3979;SDS011;2004;52.452;13.120;2024-01-30T08:49:08;196.47;;;15.40;;
3979;SDS011;2004;52.452;13.120;2024-01-30T08:56:59;199.07;;;15.53;;
3979;SDS011;2004;52.452;13.120;2024-01-30T09:04:49;194.23;;;14.57;;
3979;SDS011;2004;52.452;13.120;2024-01-30T09:12:40;202.93;;;17.47;;
3979;SDS011;2004;52.452;13.120;2024-01-30T09:20:30;205.33;;;18.53;;
3979;SDS011;2004;52.452;13.120;2024-01-30T09:28:21;194.17;;;13.97;;
3979;SDS011;2004;52.452;13.120;2024-01-30T09:36:12;196.90;;;14.67;;
3979;SDS011;2004;52.452;13.120;2024-01-30T09:44:05;193.37;;;14.10;;
3979;SDS011;2004;52.452;13.120;2024-01-30T09:51:57;188.97;;;12.73;;
3979;SDS011;2004;52.452;13.120;2024-01-30T09:59:48;190.73;;;13.77;;
3979;SDS011;2004;52.452;13.120;2024-01-30T10:07:49;188.17;;;12.90;;
3979;SDS011;2004;52.452;13.120;2024-01-30T10:15:42;191.93;;;13.73;;
3979;SDS011;2004;52.452;13.120;2024-01-30T10:23:33;190.47;;;13.00;;
3979;SDS011;2004;52.452;13.120;2024-01-30T10:31:23;191.13;;;13.17;;
3979;SDS011;2004;52.452;13.120;2024-01-30T10:39:14;188.77;;;13.77;;
3979;SDS011;2004;52.452;13.120;2024-01-30T10:47:09;194.17;;;14.90;;
3979;SDS011;2004;52.452;13.120;2024-01-30T10:55:05;193.77;;;13.20;;
3979;SDS011;2004;52.452;13.120;2024-01-30T11:02:57;189.60;;;14.27;;
3979;SDS011;2004;52.452;13.120;2024-01-30T11:10:47;189.93;;;14.30;;
3979;SDS011;2004;52.452;13.120;2024-01-30T11:18:38;188.97;;;13.77;;
3979;SDS011;2004;52.452;13.120;2024-01-30T11:26:30;193.73;;;14.50;;
3979;SDS011;2004;52.452;13.120;2024-01-30T11:34:22;189.87;;;13.17;;
3979;SDS011;2004;52.452;13.120;2024-01-30T11:42:13;192.43;;;13.87;;
3979;SDS011;2004;52.452;13.120;2024-01-30T11:50:05;186.60;;;13.00;;
3979;SDS011;2004;52.452;13.120;2024-01-30T11:57:56;185.53;;;12.60;;
3979;SDS011;2004;52.452;13.120;2024-01-30T12:05:54;189.33;;;13.00;;
3979;SDS011;2004;52.452;13.120;2024-01-30T12:13:49;195.20;;;14.43;;
3979;SDS011;2004;52.452;13.120;2024-01-30T12:21:40;190.47;;;13.43;;
3979;SDS011;2004;52.452;13.120;2024-01-30T12:29:34;192.57;;;13.50;;
3979;SDS011;2004;52.452;13.120;2024-01-30T12:37:24;186.60;;;14.13;;
3979;SDS011;2004;52.452;13.120;2024-01-30T12:45:15;188.73;;;14.20;;
3979;SDS011;2004;52.452;13.120;2024-01-30T12:53:06;186.47;;;13.47;;
3979;SDS011;2004;52.452;13.120;2024-01-30T13:00:56;188.97;;;12.97;;
3979;SDS011;2004;52.452;13.120;2024-01-30T13:08:47;187.67;;;12.90;;
3979;SDS011;2004;52.452;13.120;2024-01-30T13:16:37;185.60;;;11.93;;
3979;SDS011;2004;52.452;13.120;2024-01-30T13:24:28;184.30;;;11.80;;
3979;SDS011;2004;52.452;13.120;2024-01-30T13:32:18;182.97;;;11.90;;
3979;SDS011;2004;52.452;13.120;2024-01-30T13:40:09;186.67;;;12.50;;
3979;SDS011;2004;52.452;13.120;2024-01-30T13:47:59;190.20;;;12.63;;
3979;SDS011;2004;52.452;13.120;2024-01-30T13:55:50;183.70;;;11.93;;
3979;SDS011;2004;52.452;13.120;2024-01-30T14:03:40;184.83;;;12.83;;
3979;SDS011;2004;52.452;13.120;2024-01-30T14:11:31;186.00;;;11.80;;
3979;SDS011;2004;52.452;13.120;2024-01-30T14:19:21;193.53;;;13.10;;
3979;SDS011;2004;52.452;13.120;2024-01-30T14:27:12;184.80;;;12.20;;
3979;SDS011;2004;52.452;13.120;2024-01-30T14:35:02;181.93;;;11.13;;
3979;SDS011;2004;52.452;13.120;2024-01-30T14:42:53;186.67;;;12.60;;
3979;SDS011;2004;52.452;13.120;2024-01-30T14:50:44;184.87;;;12.60;;
3979;SDS011;2004;52.452;13.120;2024-01-30T14:58:35;186.20;;;11.93;;
3979;SDS011;2004;52.452;13.120;2024-01-30T15:06:26;193.80;;;12.80;;
3979;SDS011;2004;52.452;13.120;2024-01-30T15:14:17;194.93;;;12.60;;
3979;SDS011;2004;52.452;13.120;2024-01-30T15:22:08;181.37;;;11.80;;
3979;SDS011;2004;52.452;13.120;2024-01-30T15:29:58;185.23;;;12.20;;
3979;SDS011;2004;52.452;13.120;2024-01-30T15:37:49;184.80;;;12.30;;
3979;SDS011;2004;52.452;13.120;2024-01-30T15:45:39;188.07;;;13.00;;
3979;SDS011;2004;52.452;13.120;2024-01-30T15:53:30;184.87;;;12.67;;
3979;SDS011;2004;52.452;13.120;2024-01-30T16:01:21;181.87;;;11.70;;
3979;SDS011;2004;52.452;13.120;2024-01-30T16:09:11;187.07;;;12.50;;
3979;SDS011;2004;52.452;13.120;2024-01-30T16:17:04;185.77;;;13.07;;
3979;SDS011;2004;52.452;13.120;2024-01-30T16:24:54;183.77;;;12.33;;
3979;SDS011;2004;52.452;13.120;2024-01-30T16:32:45;192.40;;;13.23;;
3979;SDS011;2004;52.452;13.120;2024-01-30T16:40:35;191.77;;;13.63;;
3979;SDS011;2004;52.452;13.120;2024-01-30T16:48:26;186.37;;;13.10;;
3979;SDS011;2004;52.452;13.120;2024-01-30T16:56:17;191.10;;;13.47;;
3979;SDS011;2004;52.452;13.120;2024-01-30T17:04:07;187.87;;;12.90;;
3979;SDS011;2004;52.452;13.120;2024-01-30T17:11:59;189.37;;;13.57;;
3979;SDS011;2004;52.452;13.120;2024-01-30T17:19:53;188.93;;;13.60;;
3979;SDS011;2004;52.452;13.120;2024-01-30T17:27:43;189.40;;;13.60;;
3979;SDS011;2004;52.452;13.120;2024-01-30T17:35:34;191.23;;;13.40;;
3979;SDS011;2004;52.452;13.120;2024-01-30T17:43:25;188.10;;;14.43;;
3979;SDS011;2004;52.452;13.120;2024-01-30T17:51:15;187.77;;;14.03;;
3979;SDS011;2004;52.452;13.120;2024-01-30T17:59:06;191.10;;;14.30;;
3979;SDS011;2004;52.452;13.120;2024-01-30T18:06:57;188.17;;;13.80;;
3979;SDS011;2004;52.452;13.120;2024-01-30T18:14:47;188.87;;;12.67;;
3979;SDS011;2004;52.452;13.120;2024-01-30T18:22:38;188.97;;;13.80;;
3979;SDS011;2004;52.452;13.120;2024-01-30T18:30:31;189.67;;;13.27;;
3979;SDS011;2004;52.452;13.120;2024-01-30T18:38:22;186.30;;;13.60;;
3979;SDS011;2004;52.452;13.120;2024-01-30T18:46:12;187.47;;;13.93;;
3979;SDS011;2004;52.452;13.120;2024-01-30T18:54:03;186.90;;;13.67;;
3979;SDS011;2004;52.452;13.120;2024-01-30T19:01:53;187.03;;;12.83;;
3979;SDS011;2004;52.452;13.120;2024-01-30T19:09:46;186.63;;;12.60;;
3979;SDS011;2004;52.452;13.120;2024-01-30T19:17:37;190.00;;;12.60;;
3979;SDS011;2004;52.452;13.120;2024-01-30T19:25:28;189.87;;;12.50;;
3979;SDS011;2004;52.452;13.120;2024-01-30T19:33:19;186.57;;;12.93;;
3979;SDS011;2004;52.452;13.120;2024-01-30T19:41:10;186.73;;;13.07;;
3979;SDS011;2004;52.452;13.120;2024-01-30T19:49:02;187.47;;;12.80;;
3979;SDS011;2004;52.452;13.120;2024-01-30T19:56:52;183.60;;;11.47;;
3979;SDS011;2004;52.452;13.120;2024-01-30T20:04:43;186.83;;;12.20;;
3979;SDS011;2004;52.452;13.120;2024-01-30T20:12:34;186.07;;;13.33;;
3979;SDS011;2004;52.452;13.120;2024-01-30T20:20:27;185.70;;;11.90;;
3979;SDS011;2004;52.452;13.120;2024-01-30T20:28:17;186.87;;;13.40;;
3979;SDS011;2004;52.452;13.120;2024-01-30T20:36:08;188.57;;;13.87;;
3979;SDS011;2004;52.452;13.120;2024-01-30T20:43:59;193.17;;;14.07;;
3979;SDS011;2004;52.452;13.120;2024-01-30T20:51:49;189.10;;;13.60;;
3979;SDS011;2004;52.452;13.120;2024-01-30T20:59:40;190.03;;;14.13;;
3979;SDS011;2004;52.452;13.120;2024-01-30T21:07:30;193.67;;;13.83;;
3979;SDS011;2004;52.452;13.120;2024-01-30T21:15:21;186.57;;;13.30;;
3979;SDS011;2004;52.452;13.120;2024-01-30T21:23:12;191.13;;;13.57;;
3979;SDS011;2004;52.452;13.120;2024-01-30T21:31:04;186.57;;;13.17;;
3979;SDS011;2004;52.452;13.120;2024-01-30T21:38:57;189.10;;;14.50;;
3979;SDS011;2004;52.452;13.120;2024-01-30T21:46:48;190.17;;;14.37;;
3979;SDS011;2004;52.452;13.120;2024-01-30T21:54:38;191.30;;;13.83;;
3979;SDS011;2004;52.452;13.120;2024-01-30T22:02:30;187.30;;;13.80;;
3979;SDS011;2004;52.452;13.120;2024-01-30T22:10:20;189.73;;;14.80;;
3979;SDS011;2004;52.452;13.120;2024-01-30T22:18:10;186.73;;;13.73;;
3979;SDS011;2004;52.452;13.120;2024-01-30T22:26:02;187.13;;;13.20;;
3979;SDS011;2004;52.452;13.120;2024-01-30T22:33:52;191.47;;;14.50;;
3979;SDS011;2004;52.452;13.120;2024-01-30T22:41:43;195.50;;;15.17;;
3979;SDS011;2004;52.452;13.120;2024-01-30T22:49:34;187.87;;;14.70;;
3979;SDS011;2004;52.452;13.120;2024-01-30T22:57:24;196.13;;;14.47;;
3979;SDS011;2004;52.452;13.120;2024-01-30T23:05:15;192.13;;;16.30;;
3979;SDS011;2004;52.452;13.120;2024-01-30T23:13:06;191.57;;;14.67;;
3979;SDS011;2004;52.452;13.120;2024-01-30T23:20:58;193.27;;;15.27;;
3979;SDS011;2004;52.452;13.120;2024-01-30T23:28:49;191.70;;;14.87;;
3979;SDS011;2004;52.452;13.120;2024-01-30T23:36:41;191.97;;;15.63;;
3979;SDS011;2004;52.452;13.120;2024-01-30T23:44:35;193.17;;;15.60;;
3979;SDS011;2004;52.452;13.120;2024-01-30T23:52:26;196.00;;;14.67;;
